Captain Boudreaux — WDI2272 — position and weather

sailwx.info

Track history (hours):
 
Tides and Currents Weather Stations Pressure Air Temp Water Temp Dewpoint Dewpoint Depression Visibility Wind Speed Wind Dir Waves Ship Positions

Captain Boudreaux

Owner: B & J CORP, LAKE ARTHUR, LA. More information available from US FCC via Universal Licensing System and Coast Guard Vessel Documentation Center.

Last reported at 2017-Sep-17 03:20 UTC. Time now 2017-Sep-25 09:44 UTC.
Position N 29°60' W 092°47'.
Warning: this ship's position is 8 days out of date.

Length 24 m.

Type: Tug. MMSI: 367676470.

Date/timePositionNaut miles runAvg speedWind from/ knotsBaromVisibWave heightAir tempDewpointWater temp
2017-Sep-17 03:20N 29°60' W 092°47'0 0.0
2017-Sep-17 02:55N 29°60' W 092°47'0 0.0
2017-Sep-17 02:30N 29°60' W 092°47'0 0.0
2017-Sep-17 01:55N 29°60' W 092°47'0 0.0
2017-Sep-16 03:00N 29°60' W 092°47'0 0.0
2017-Sep-15 03:26N 29°60' W 092°47'0 0.0
2017-Sep-15 02:54N 29°60' W 092°47'  
2017-Sep-10 19:58N 29°56' W 093°07'2 3.8
2017-Sep-10 19:31N 29°56' W 093°09'2 3.6
2017-Sep-10 19:00N 29°57' W 093°10'2 4.0
2017-Sep-10 18:30N 29°59' W 093°12'2 3.8
2017-Sep-10 18:01N 29°60' W 093°13'2 3.6
2017-Sep-10 17:31N 30°02' W 093°14'1 2.1
2017-Sep-10 17:00N 30°02' W 093°15'0 0.2
2017-Sep-10 16:31N 30°02' W 093°15'0 0.0
2017-Sep-10 16:00N 30°02' W 093°15'0 0.0
2017-Sep-10 15:30N 30°02' W 093°15'1 2.7
2017-Sep-10 15:00N 30°03' W 093°16'4 3.6
2017-Sep-10 14:00N 30°06' W 093°19'3 2.6
2017-Sep-10 12:50N 30°04' W 093°21'0 0.0
2017-Sep-10 12:30N 30°04' W 093°21'0 0.0
2017-Sep-10 11:57N 30°04' W 093°21'0 0.0
2017-Sep-10 10:17N 30°04' W 093°21'0 0.0
2017-Sep-10 10:01N 30°04' W 093°21'0 0.0
2017-Sep-10 09:31N 30°04' W 093°21'0 0.0
2017-Sep-10 09:01N 30°04' W 093°21'0 0.0
2017-Sep-10 08:30N 30°04' W 093°21'0 0.0
2017-Sep-10 07:58N 30°04' W 093°21'0 0.0
2017-Sep-10 07:30N 30°04' W 093°21'0 0.0
2017-Sep-10 07:00N 30°04' W 093°21'0 0.0
2017-Sep-10 06:30N 30°04' W 093°21'0 0.0
2017-Sep-10 06:00N 30°04' W 093°21'0 0.0
2017-Sep-10 05:29N 30°04' W 093°21'0 0.0
2017-Sep-10 05:01N 30°04' W 093°21'0 0.0
2017-Sep-10 04:30N 30°04' W 093°21'0 0.0
2017-Sep-10 04:01N 30°04' W 093°21'0 0.0
2017-Sep-10 03:31N 30°04' W 093°21'0 0.0
2017-Sep-10 03:00N 30°04' W 093°21'0 0.0
2017-Sep-10 02:31N 30°04' W 093°21'0 0.0
2017-Sep-10 02:01N 30°04' W 093°21'0 0.0
2017-Sep-10 01:31N 30°04' W 093°21'0 0.0
2017-Sep-10 01:00N 30°04' W 093°21'0 0.0
2017-Sep-10 00:30N 30°04' W 093°21'0 0.0
2017-Sep-10 00:00N 30°04' W 093°21'0 0.0
2017-Sep-09 23:31N 30°04' W 093°21'0 0.0
2017-Sep-09 23:01N 30°04' W 093°21'0 0.0
2017-Sep-09 22:30N 30°04' W 093°21'0 0.0
2017-Sep-09 22:00N 30°04' W 093°21'0 0.0
2017-Sep-09 21:31N 30°04' W 093°21'0 0.0
2017-Sep-09 21:01N 30°04' W 093°21'0 0.2
2017-Sep-09 20:31N 30°04' W 093°21'0 0.1
2017-Sep-09 20:00N 30°04' W 093°21'0 0.0
2017-Sep-09 19:30N 30°04' W 093°21'0 0.0
2017-Sep-09 19:01N 30°04' W 093°21'0 0.0
2017-Sep-09 18:30N 30°04' W 093°21'0 0.0
2017-Sep-09 18:01N 30°04' W 093°21'0 0.0
2017-Sep-09 17:31N 30°04' W 093°21'0 0.0
2017-Sep-09 17:01N 30°04' W 093°21'0 0.0
2017-Sep-09 16:30N 30°04' W 093°21'0 0.0
2017-Sep-09 16:01N 30°04' W 093°21'0 0.0
2017-Sep-09 15:31N 30°04' W 093°21'0 0.0
2017-Sep-09 15:00N 30°04' W 093°21'0 0.0
2017-Sep-09 14:29N 30°04' W 093°21'0 0.0
2017-Sep-09 13:58N 30°04' W 093°21'0 0.0
2017-Sep-09 13:04N 30°04' W 093°21'0 0.1
2017-Sep-09 13:01N 30°04' W 093°21'0 0.0
2017-Sep-09 12:31N 30°04' W 093°21'0 0.0
2017-Sep-09 12:00N 30°04' W 093°21'0 0.0
2017-Sep-09 11:23N 30°04' W 093°21'0 0.0
2017-Sep-09 10:57N 30°04' W 093°21'0 0.0
2017-Sep-09 10:26N 30°04' W 093°21'0 0.0
2017-Sep-09 09:58N 30°04' W 093°21'0 0.0
2017-Sep-09 09:30N 30°04' W 093°21'0 0.0
2017-Sep-09 08:58N 30°04' W 093°21'0 0.0
2017-Sep-09 08:31N 30°04' W 093°21'0 0.0
2017-Sep-09 07:59N 30°04' W 093°21'0 0.0
2017-Sep-09 07:30N 30°04' W 093°21'0 0.0
2017-Sep-09 07:00N 30°04' W 093°21'0 0.0
2017-Sep-09 06:31N 30°04' W 093°21'0 0.0
2017-Sep-09 04:36N 30°04' W 093°21'0 0.0
2017-Sep-09 04:29N 30°04' W 093°21'0 0.0
2017-Sep-09 03:50N 30°04' W 093°21'0 0.0
2017-Sep-09 03:10N 30°04' W 093°21'0 0.0
2017-Sep-09 02:20N 30°04' W 093°21'0 0.0
2017-Sep-09 02:01N 30°04' W 093°21'0 0.0
2017-Sep-09 01:21N 30°04' W 093°21'0 0.0
2017-Sep-09 01:00N 30°04' W 093°21'0 0.0
2017-Sep-09 00:30N 30°04' W 093°21'0 0.0
2017-Sep-09 00:00N 30°04' W 093°21'0 0.0
2017-Sep-08 23:31N 30°04' W 093°21'0 0.0
2017-Sep-08 23:01N 30°04' W 093°21'0 0.0
2017-Sep-08 22:30N 30°04' W 093°21'0 0.0
2017-Sep-08 22:00N 30°04' W 093°21'0 0.0
2017-Sep-08 21:30N 30°04' W 093°21'0 0.0
2017-Sep-08 21:00N 30°04' W 093°21'0 0.0
2017-Sep-08 20:31N 30°04' W 093°21'0 0.0
2017-Sep-08 20:00N 30°04' W 093°21'0 0.0
2017-Sep-08 19:31N 30°04' W 093°21'0 0.1
2017-Sep-08 19:01N 30°04' W 093°21'0 0.0
2017-Sep-08 18:31N 30°04' W 093°21'0 0.0
2017-Sep-08 18:00N 30°04' W 093°21'0 0.0
2017-Sep-08 17:31N 30°04' W 093°21'0 0.0
2017-Sep-08 17:00N 30°04' W 093°21'0 0.0
2017-Sep-08 16:31N 30°04' W 093°21'0 0.0
2017-Sep-08 16:00N 30°04' W 093°21'0 0.0
2017-Sep-08 15:30N 30°04' W 093°21'0 0.0
2017-Sep-08 15:00N 30°04' W 093°21'0 0.0
2017-Sep-08 14:24N 30°04' W 093°21'0 0.0
2017-Sep-08 14:00N 30°04' W 093°21'0 0.0
2017-Sep-08 13:31N 30°04' W 093°21'0 0.0
2017-Sep-08 13:00N 30°04' W 093°21'0 0.0
2017-Sep-08 12:30N 30°04' W 093°21'0 0.0
2017-Sep-08 12:00N 30°04' W 093°21'0 0.0
2017-Sep-08 11:30N 30°04' W 093°21'0 0.0
2017-Sep-08 09:58N 30°04' W 093°21'0 0.0
2017-Sep-08 08:49N 30°04' W 093°21'0 0.0
2017-Sep-08 08:18N 30°04' W 093°21'0 0.0
2017-Sep-08 07:55N 30°04' W 093°21'0 0.0
2017-Sep-08 07:31N 30°04' W 093°21'0 0.0
2017-Sep-08 06:43N 30°04' W 093°21'0 0.0
2017-Sep-08 06:16N 30°04' W 093°21'0 0.0
2017-Sep-08 04:57N 30°04' W 093°21'0 0.0
2017-Sep-08 04:12N 30°04' W 093°21'0 0.0
2017-Sep-08 03:53N 30°04' W 093°21'0 0.0
2017-Sep-08 03:06N 30°04' W 093°21'0 0.0
2017-Sep-08 02:38N 30°04' W 093°21'0 0.0
2017-Sep-08 02:17N 30°04' W 093°21'0 0.0
2017-Sep-08 02:00N 30°04' W 093°21'0 0.0
2017-Sep-08 01:31N 30°04' W 093°21'0 0.0
2017-Sep-08 01:00N 30°04' W 093°21'0 0.0
2017-Sep-08 00:31N 30°04' W 093°21'0 0.0
2017-Sep-08 00:00N 30°04' W 093°21'0 0.0
2017-Sep-07 23:30N 30°04' W 093°21'0 0.0
2017-Sep-07 23:00N 30°04' W 093°21'0 0.0
2017-Sep-07 22:31N 30°04' W 093°21'0 0.0
2017-Sep-07 22:00N 30°04' W 093°21'0 0.0
2017-Sep-07 21:30N 30°04' W 093°21'0 0.0
2017-Sep-07 21:01N 30°04' W 093°21'1 1.8
2017-Sep-07 20:31N 30°05' W 093°20'2 3.7
2017-Sep-07 20:00N 30°06' W 093°20'3 6.2
2017-Sep-07 19:31N 30°09' W 093°20'3 6.1
2017-Sep-07 19:01N 30°12' W 093°17'2 4.6
2017-Sep-07 18:30N 30°13' W 093°15'2 4.1
2017-Sep-07 18:00N 30°15' W 093°15'1 1.4
2017-Sep-07 17:30N 30°15' W 093°14'1 2.5
2017-Sep-07 17:00N 30°15' W 093°13'1 2.6
2017-Sep-07 16:30N 30°15' W 093°14'1 1.3
2017-Sep-07 16:00N 30°15' W 093°15'1 2.9
2017-Sep-07 15:31N 30°14' W 093°15'2 3.1
2017-Sep-07 15:01N 30°12' W 093°16'3 5.7
2017-Sep-07 14:30N 30°11' W 093°19'7 3.1
2017-Sep-07 12:08N 30°04' W 093°21'0 0.0
2017-Sep-07 11:59N 30°04' W 093°21'0 0.0
2017-Sep-07 11:31N 30°04' W 093°21'0 0.0
2017-Sep-07 11:00N 30°04' W 093°21'0 0.0
2017-Sep-07 10:29N 30°04' W 093°21'0 0.0
2017-Sep-07 10:00N 30°04' W 093°21'0 0.0
2017-Sep-07 09:31N 30°04' W 093°21'0 0.0
2017-Sep-07 09:00N 30°04' W 093°21'0 0.0
2017-Sep-07 08:31N 30°04' W 093°21'0 0.0
2017-Sep-07 08:00N 30°04' W 093°21'0 0.0
2017-Sep-07 07:31N 30°04' W 093°21'0 0.0
2017-Sep-07 07:00N 30°04' W 093°21'0 0.0
2017-Sep-07 06:31N 30°04' W 093°21'0 0.0
2017-Sep-07 06:01N 30°04' W 093°21'0 0.0
2017-Sep-07 05:31N 30°04' W 093°21'0 0.0
2017-Sep-07 05:00N 30°04' W 093°21'0 0.0
2017-Sep-07 04:30N 30°04' W 093°21'0 0.0
2017-Sep-07 04:01N 30°04' W 093°21'0 0.0
2017-Sep-07 03:30N 30°04' W 093°21'  
Track history (hours):
 
Tides and Currents Weather Stations Pressure Air Temp Water Temp Dewpoint Dewpoint Depression Visibility Wind Speed Wind Dir Waves Ship Positions

Captain Boudreaux

Owner: B & J CORP, LAKE ARTHUR, LA. More information available from US FCC via Universal Licensing System and Coast Guard Vessel Documentation Center.

Last reported at 2017-Sep-17 03:20 UTC. Time now 2017-Sep-25 09:44 UTC.
Position N 29°60' W 092°47'.
Warning: this ship's position is 8 days out of date.

Length 24 m.

Type: Tug. MMSI: 367676470.

Date/timePositionNaut miles runAvg speedWind from/ knotsBaromVisibWave heightAir tempDewpointWater temp
2017-Sep-17 03:20N 29°60' W 092°47'0 0.0
2017-Sep-17 02:55N 29°60' W 092°47'0 0.0
2017-Sep-17 02:30N 29°60' W 092°47'0 0.0
2017-Sep-17 01:55N 29°60' W 092°47'0 0.0
2017-Sep-16 03:00N 29°60' W 092°47'0 0.0
2017-Sep-15 03:26N 29°60' W 092°47'0 0.0
2017-Sep-15 02:54N 29°60' W 092°47'  
2017-Sep-10 19:58N 29°56' W 093°07'2 3.8
2017-Sep-10 19:31N 29°56' W 093°09'2 3.6
2017-Sep-10 19:00N 29°57' W 093°10'2 4.0
2017-Sep-10 18:30N 29°59' W 093°12'2 3.8
2017-Sep-10 18:01N 29°60' W 093°13'2 3.6
2017-Sep-10 17:31N 30°02' W 093°14'1 2.1
2017-Sep-10 17:00N 30°02' W 093°15'0 0.2
2017-Sep-10 16:31N 30°02' W 093°15'0 0.0
2017-Sep-10 16:00N 30°02' W 093°15'0 0.0
2017-Sep-10 15:30N 30°02' W 093°15'1 2.7
2017-Sep-10 15:00N 30°03' W 093°16'4 3.6
2017-Sep-10 14:00N 30°06' W 093°19'3 2.6
2017-Sep-10 12:50N 30°04' W 093°21'0 0.0
2017-Sep-10 12:30N 30°04' W 093°21'0 0.0
2017-Sep-10 11:57N 30°04' W 093°21'0 0.0
2017-Sep-10 10:17N 30°04' W 093°21'0 0.0
2017-Sep-10 10:01N 30°04' W 093°21'0 0.0
2017-Sep-10 09:31N 30°04' W 093°21'0 0.0
2017-Sep-10 09:01N 30°04' W 093°21'0 0.0
2017-Sep-10 08:30N 30°04' W 093°21'0 0.0
2017-Sep-10 07:58N 30°04' W 093°21'0 0.0
2017-Sep-10 07:30N 30°04' W 093°21'0 0.0
2017-Sep-10 07:00N 30°04' W 093°21'0 0.0
2017-Sep-10 06:30N 30°04' W 093°21'0 0.0
2017-Sep-10 06:00N 30°04' W 093°21'0 0.0
2017-Sep-10 05:29N 30°04' W 093°21'0 0.0
2017-Sep-10 05:01N 30°04' W 093°21'0 0.0
2017-Sep-10 04:30N 30°04' W 093°21'0 0.0
2017-Sep-10 04:01N 30°04' W 093°21'0 0.0
2017-Sep-10 03:31N 30°04' W 093°21'0 0.0
2017-Sep-10 03:00N 30°04' W 093°21'0 0.0
2017-Sep-10 02:31N 30°04' W 093°21'0 0.0
2017-Sep-10 02:01N 30°04' W 093°21'0 0.0
2017-Sep-10 01:31N 30°04' W 093°21'0 0.0
2017-Sep-10 01:00N 30°04' W 093°21'0 0.0
2017-Sep-10 00:30N 30°04' W 093°21'0 0.0
2017-Sep-10 00:00N 30°04' W 093°21'0 0.0
2017-Sep-09 23:31N 30°04' W 093°21'0 0.0
2017-Sep-09 23:01N 30°04' W 093°21'0 0.0
2017-Sep-09 22:30N 30°04' W 093°21'0 0.0
2017-Sep-09 22:00N 30°04' W 093°21'0 0.0
2017-Sep-09 21:31N 30°04' W 093°21'0 0.0
2017-Sep-09 21:01N 30°04' W 093°21'0 0.2
2017-Sep-09 20:31N 30°04' W 093°21'0 0.1
2017-Sep-09 20:00N 30°04' W 093°21'0 0.0
2017-Sep-09 19:30N 30°04' W 093°21'0 0.0
2017-Sep-09 19:01N 30°04' W 093°21'0 0.0
2017-Sep-09 18:30N 30°04' W 093°21'0 0.0
2017-Sep-09 18:01N 30°04' W 093°21'0 0.0
2017-Sep-09 17:31N 30°04' W 093°21'0 0.0
2017-Sep-09 17:01N 30°04' W 093°21'0 0.0
2017-Sep-09 16:30N 30°04' W 093°21'0 0.0
2017-Sep-09 16:01N 30°04' W 093°21'0 0.0
2017-Sep-09 15:31N 30°04' W 093°21'0 0.0
2017-Sep-09 15:00N 30°04' W 093°21'0 0.0
2017-Sep-09 14:29N 30°04' W 093°21'0 0.0
2017-Sep-09 13:58N 30°04' W 093°21'0 0.0
2017-Sep-09 13:04N 30°04' W 093°21'0 0.1
2017-Sep-09 13:01N 30°04' W 093°21'0 0.0
2017-Sep-09 12:31N 30°04' W 093°21'0 0.0
2017-Sep-09 12:00N 30°04' W 093°21'0 0.0
2017-Sep-09 11:23N 30°04' W 093°21'0 0.0
2017-Sep-09 10:57N 30°04' W 093°21'0 0.0
2017-Sep-09 10:26N 30°04' W 093°21'0 0.0
2017-Sep-09 09:58N 30°04' W 093°21'0 0.0
2017-Sep-09 09:30N 30°04' W 093°21'0 0.0
2017-Sep-09 08:58N 30°04' W 093°21'0 0.0
2017-Sep-09 08:31N 30°04' W 093°21'0 0.0
2017-Sep-09 07:59N 30°04' W 093°21'0 0.0
2017-Sep-09 07:30N 30°04' W 093°21'0 0.0
2017-Sep-09 07:00N 30°04' W 093°21'0 0.0
2017-Sep-09 06:31N 30°04' W 093°21'0 0.0
2017-Sep-09 04:36N 30°04' W 093°21'0 0.0
2017-Sep-09 04:29N 30°04' W 093°21'0 0.0
2017-Sep-09 03:50N 30°04' W 093°21'0 0.0
2017-Sep-09 03:10N 30°04' W 093°21'0 0.0
2017-Sep-09 02:20N 30°04' W 093°21'0 0.0
2017-Sep-09 02:01N 30°04' W 093°21'0 0.0
2017-Sep-09 01:21N 30°04' W 093°21'0 0.0
2017-Sep-09 01:00N 30°04' W 093°21'0 0.0
2017-Sep-09 00:30N 30°04' W 093°21'0 0.0
2017-Sep-09 00:00N 30°04' W 093°21'0 0.0
2017-Sep-08 23:31N 30°04' W 093°21'0 0.0
2017-Sep-08 23:01N 30°04' W 093°21'0 0.0
2017-Sep-08 22:30N 30°04' W 093°21'0 0.0
2017-Sep-08 22:00N 30°04' W 093°21'0 0.0
2017-Sep-08 21:30N 30°04' W 093°21'0 0.0
2017-Sep-08 21:00N 30°04' W 093°21'0 0.0
2017-Sep-08 20:31N 30°04' W 093°21'0 0.0
2017-Sep-08 20:00N 30°04' W 093°21'0 0.0
2017-Sep-08 19:31N 30°04' W 093°21'0 0.1
2017-Sep-08 19:01N 30°04' W 093°21'0 0.0
2017-Sep-08 18:31N 30°04' W 093°21'0 0.0
2017-Sep-08 18:00N 30°04' W 093°21'0 0.0
2017-Sep-08 17:31N 30°04' W 093°21'0 0.0
2017-Sep-08 17:00N 30°04' W 093°21'0 0.0
2017-Sep-08 16:31N 30°04' W 093°21'0 0.0
2017-Sep-08 16:00N 30°04' W 093°21'0 0.0
2017-Sep-08 15:30N 30°04' W 093°21'0 0.0
2017-Sep-08 15:00N 30°04' W 093°21'0 0.0
2017-Sep-08 14:24N 30°04' W 093°21'0 0.0
2017-Sep-08 14:00N 30°04' W 093°21'0 0.0
2017-Sep-08 13:31N 30°04' W 093°21'0 0.0
2017-Sep-08 13:00N 30°04' W 093°21'0 0.0
2017-Sep-08 12:30N 30°04' W 093°21'0 0.0
2017-Sep-08 12:00N 30°04' W 093°21'0 0.0
2017-Sep-08 11:30N 30°04' W 093°21'0 0.0
2017-Sep-08 09:58N 30°04' W 093°21'0 0.0
2017-Sep-08 08:49N 30°04' W 093°21'0 0.0
2017-Sep-08 08:18N 30°04' W 093°21'0 0.0
2017-Sep-08 07:55N 30°04' W 093°21'0 0.0
2017-Sep-08 07:31N 30°04' W 093°21'0 0.0
2017-Sep-08 06:43N 30°04' W 093°21'0 0.0
2017-Sep-08 06:16N 30°04' W 093°21'0 0.0
2017-Sep-08 04:57N 30°04' W 093°21'0 0.0
2017-Sep-08 04:12N 30°04' W 093°21'0 0.0
2017-Sep-08 03:53N 30°04' W 093°21'0 0.0
2017-Sep-08 03:06N 30°04' W 093°21'0 0.0
2017-Sep-08 02:38N 30°04' W 093°21'0 0.0
2017-Sep-08 02:17N 30°04' W 093°21'0 0.0
2017-Sep-08 02:00N 30°04' W 093°21'0 0.0
2017-Sep-08 01:31N 30°04' W 093°21'0 0.0
2017-Sep-08 01:00N 30°04' W 093°21'0 0.0
2017-Sep-08 00:31N 30°04' W 093°21'0 0.0
2017-Sep-08 00:00N 30°04' W 093°21'0 0.0
2017-Sep-07 23:30N 30°04' W 093°21'0 0.0
2017-Sep-07 23:00N 30°04' W 093°21'0 0.0
2017-Sep-07 22:31N 30°04' W 093°21'0 0.0
2017-Sep-07 22:00N 30°04' W 093°21'0 0.0
2017-Sep-07 21:30N 30°04' W 093°21'0 0.0
2017-Sep-07 21:01N 30°04' W 093°21'1 1.8
2017-Sep-07 20:31N 30°05' W 093°20'2 3.7
2017-Sep-07 20:00N 30°06' W 093°20'3 6.2
2017-Sep-07 19:31N 30°09' W 093°20'3 6.1
2017-Sep-07 19:01N 30°12' W 093°17'2 4.6
2017-Sep-07 18:30N 30°13' W 093°15'2 4.1
2017-Sep-07 18:00N 30°15' W 093°15'1 1.4
2017-Sep-07 17:30N 30°15' W 093°14'1 2.5
2017-Sep-07 17:00N 30°15' W 093°13'1 2.6
2017-Sep-07 16:30N 30°15' W 093°14'1 1.3
2017-Sep-07 16:00N 30°15' W 093°15'1 2.9
2017-Sep-07 15:31N 30°14' W 093°15'2 3.1
2017-Sep-07 15:01N 30°12' W 093°16'3 5.7
2017-Sep-07 14:30N 30°11' W 093°19'7 3.1
2017-Sep-07 12:08N 30°04' W 093°21'0 0.0
2017-Sep-07 11:59N 30°04' W 093°21'0 0.0
2017-Sep-07 11:31N 30°04' W 093°21'0 0.0
2017-Sep-07 11:00N 30°04' W 093°21'0 0.0
2017-Sep-07 10:29N 30°04' W 093°21'0 0.0
2017-Sep-07 10:00N 30°04' W 093°21'0 0.0
2017-Sep-07 09:31N 30°04' W 093°21'0 0.0
2017-Sep-07 09:00N 30°04' W 093°21'0 0.0
2017-Sep-07 08:31N 30°04' W 093°21'0 0.0
2017-Sep-07 08:00N 30°04' W 093°21'0 0.0
2017-Sep-07 07:31N 30°04' W 093°21'0 0.0
2017-Sep-07 07:00N 30°04' W 093°21'0 0.0
2017-Sep-07 06:31N 30°04' W 093°21'0 0.0
2017-Sep-07 06:01N 30°04' W 093°21'0 0.0
2017-Sep-07 05:31N 30°04' W 093°21'0 0.0
2017-Sep-07 05:00N 30°04' W 093°21'0 0.0
2017-Sep-07 04:30N 30°04' W 093°21'0 0.0
2017-Sep-07 04:01N 30°04' W 093°21'0 0.0
2017-Sep-07 03:30N 30°04' W 093°21'  

Dump ship's entire track history